Time;durP1;ratioP1;P1;durP2;ratioP2;P2;SDS_P1;SDS_P2;PMS_P1;PMS_P2;Temp;Humidity;BMP_temperature;BMP_pressure;BME280_temperature;BME280_humidity;BME280_pressure;Samples;Min_cycle;Max_cycle;Signal;HPM_P1;HPM_P2
2023/09/22 00:29:20;;;;;;;59.7;15.2;;;;;;;;;;;;;-78
2023/09/22 00:59:26;;;;;;;30;9.7;;;;;;;;;;;;;-78
2023/09/22 01:29:25;;;;;;;21.4;8.8;;;;;;;;;;;;;-77
2023/09/22 01:59:26;;;;;;;34.8;10.4;;;;;;;;;;;;;-78
2023/09/22 02:29:31;;;;;;;73.1;21.2;;;;;;;;;;;;;-78
2023/09/22 02:59:35;;;;;;;107.9;28.8;;;;;;;;;;;;;-78
2023/09/22 03:29:30;;;;;;;104.8;21.8;;;;;;;;;;;;;-78
2023/09/22 03:59:35;;;;;;;82.7;19.7;;;;;;;;;;;;;-78
2023/09/22 04:29:30;;;;;;;94.6;26.1;;;;;;;;;;;;;-80
2023/09/22 04:59:37;;;;;;;88;27;;;;;;;;;;;;;-77
2023/09/22 07:00:19;;;;;;;18.5;10.3;;;;;;;;;;;;;-78
2023/09/22 07:29:42;;;;;;;10.6;6.1;;;;;;;;;;;;;-78
2023/09/22 08:29:47;;;;;;;5.9;3;;;;;;;;;;;;;-79
2023/09/22 08:59:56;;;;;;;5;3.3;;;;;;;;;;;;;-78
2023/09/22 09:30:23;;;;;;;;;;;;;;;;;;;;;
2023/09/22 10:30:09;;;;;;;4.3;2.5;;;;;;;;;;;;;-81
2023/09/22 11:00:10;;;;;;;6.4;2.8;;;;;;;;;;;;;-84
2023/09/22 11:30:16;;;;;;;6.8;2;;;;;;;;;;;;;-80
2023/09/22 12:00:21;;;;;;;4.2;1;;;;;;;;;;;;;-84
2023/09/22 12:30:13;;;;;;;4.1;1.3;;;;;;;;;;;;;-82
2023/09/22 13:30:25;;;;;;;6.6;2;;;;;;;;;;;;;-79
2023/09/22 14:00:23;;;;;;;6.1;0.9;;;;;;;;;;;;;-78
2023/09/22 14:30:34;;;;;;;1.9;0.7;;;;;;;;;;;;;-79
2023/09/22 15:30:15;;;;;;;11.1;3.4;;;;;;;;;;;;;-80
2023/09/22 16:00:21;;;;;;;3.8;1.2;;;;;;;;;;;;;-80
2023/09/22 16:30:34;;;;;;;5.7;2.2;;;;;;;;;;;;;-81
2023/09/22 17:00:26;;;;;;;5.9;2.3;;;;;;;;;;;;;-80
2023/09/22 17:30:26;;;;;;;6.7;2.5;;;;;;;;;;;;;-81
2023/09/22 18:00:36;;;;;;;6;2.4;;;;;;;;;;;;;-83
2023/09/22 18:30:36;;;;;;;1.4;0.7;;;;;;;;;;;;;-83
2023/09/22 19:00:30;;;;;;;4;1;;;;;;;;;;;;;-83
2023/09/22 19:30:40;;;;;;;5.4;2;;;;;;;;;;;;;-82
2023/09/22 20:00:32;;;;;;;4.1;2.1;;;;;;;;;;;;;-82
2023/09/22 20:30:36;;;;;;;19.3;9.1;;;;;;;;;;;;;-81
2023/09/22 21:00:40;;;;;;;21.9;9.6;;;;;;;;;;;;;-81
2023/09/22 21:30:45;;;;;;;19.1;8.9;;;;;;;;;;;;;-81
2023/09/22 22:00:51;;;;;;;25.5;12.5;;;;;;;;;;;;;-84
2023/09/22 22:30:43;;;;;;;35.9;18.6;;;;;;;;;;;;;-84
2023/09/22 23:00:55;;;;;;;36.2;21.3;;;;;;;;;;;;;-86
2023/09/22 23:30:48;;;;;;;9.8;4.2;;;;;;;;;;;;;-84
